Search for airport 
image banner adimage banner adimage banner ad
image banner ad

KNUC - San Clemente Island Nalf

Located in San Clemente Island, United States

ICAO - NUC, IATA -

Data provided by Airmate  

General information

Coordinates: N33°1'22" W118°35'19"
Elevation is 184 feet MSL.
Magnetic variation is 12° East
View others Airports in California

Operational data

Special qualification required
Current time UTC:
Current local time:
Weather
METAR: KNUC 211256Z AUTO 32007KT 10SM OVC006 14/13 A2998 RMK AO2 SLP149 T01440133 $
View NOTAMs / SUP AIP / TFR affecting this airport [VIEW]
Communications frequencies: [VIEW]

Runways:

RWY identifierQFULength (ft)Width (ft)SurfaceLDA (ft)
069301200CONC
249301200CONC

Airport contact information

Address: San Clemente Island United States

Satellite view of KNUC